Airfield :
LOGIN :

Register | Disclaimer

   EN    FR    IT 

 










Legend :    VFR   Marginal VFR   IFR   Intensive IFR   Very Intensive IFR
Visi :
Ceiling :
>= 8 km
>= 3000ft
5 to 8 km
1000 to 3000 ft
1500m to 5 km
500 to 1000 ft
800 to 1500m
200 to 500 ft
< 800m
< 200 ft
Symbols :   Thunderstorms  Fog  Heavy snow  Heavy precipitations  Wind > 20 kt
SIGMETs :     Misc.  Thunderstorms  Icing  Turbulence  Mountain Waves  Volcanic Ashes







- Airport Elevation : 233 ft
- IATA code : REU


LERS - Reus Tarragona

CURRENT METAR :
  • 280030Z AUTO VRB01KT 9000 NCD 16/15 Q1020

EXPIRED METARs :
  • 280000Z AUTO VRB01KT 9999 FEW008/// 17/16 Q1020
  • 272330Z AUTO VRB01KT 9999 NCD 18/17 Q1020
  • 272300Z AUTO VRB01KT 9999 SCT007/// 18/17 Q1020
  • 272230Z AUTO 02002KT 9999 NCD 18/17 Q1020

TAF TAF LERS
Valid from the 27 at 21:00 until the 28 at 21:00 UTC


272000Z 2721/2821 VRB03KT 9999 FEW015 TX27/2813Z TN16/2806Z
BECMG 2807/2809 12008KT
BECMG 2818/2820 VRB03KT
No reported NOTAMs for that airfield.



MET'MAP, your aeronautical weather chart ! - Copyright ORBIFLY December 2007 - Disclaimer

ORBIFLY MET'MAP TEAM :

Programming & Development : Alexandra Zaïnal
Concept & Development : Baudouin d'Aumeries
Co-Development & Prog : Marc-Olivier Méhu
Technical & hardware support : Manuel Goepfert

Contact : metmap@orbifly.com




SOURCES & CREDITS :

   NOAA